Flight Track Log - Related Links

Times and Time Zones

All times are in EST time to prevent confusion due to time zone crossing. See the SKW6345 flight status page for this flight to view local times or setup timezone preferences in your user account.

Time Position Orientation Groundspeed Altitude Reporting Facility
EST Latitude Longitude Course Direction KTS MPH feet Rate Location/Type
Wed 01:24:17 PM 39.2558 -106.8764 101° East 173 199 10,300  Level Denver Center
Wed 01:25:18 PM 39.2736 -106.9494 287° West 237 273 12,700 2,488 Climbing Denver Center
Wed 01:26:00 PM 39.3755 -106.5941 104° East  Level FlightAware Approximate
Wed 01:26:20 PM 39.3286 -106.9939 328° Northwest 282 325 15,400  Level Denver Center
Wed 01:27:00 PM 39.3530 -106.4816 104° East  Level FlightAware Approximate
Wed 01:27:22 PM 39.3564 -106.8892 71° East 345 397 17,400  Level Denver Center
Wed 01:28:00 PM 39.3333 -106.3721 90° East  Level FlightAware Approximate
Wed 01:28:23 PM 39.3544 -106.7569 91° East 372 428 18,900  Level Denver Center
Wed 01:29:00 PM 39.3167 -106.2580 101° East  Level FlightAware Approximate
Wed 01:29:25 PM 39.3533 -106.5919 90° East 399 459 20,900  Level Denver Center
Wed 01:30:26 PM 39.3367 -106.4672 100° East 384 442 21,000 49 Climbing Denver Center
Wed 01:31:28 PM 39.2606 -106.3881 141° Southeast 372 428 21,000  Level Denver Center
Wed 01:32:30 PM 39.1631 -106.2969 144° Southeast 383 441 21,000  Level Denver Center
Wed 01:33:31 PM 39.1497 -106.1711 98° East 335 386 21,000  Level Denver Center
Wed 01:34:33 PM 39.1811 -106.0700 68° East 335 386 21,000  Level Denver Center
Wed 01:35:34 PM 39.2186 -105.9586 66° East 339 390 21,000  Level Denver Center
Wed 01:36:36 PM 39.2619 -105.8250 67° East 338 389 21,000  Level Denver Center
Wed 01:37:38 PM 39.2994 -105.7083 67° East 350 403 21,000 -293 Level Denver Center
Wed 01:38:39 PM 39.3425 -105.6003 63° Northeast 335 386 20,400 -488 Descending Denver Center
Wed 01:39:41 PM 39.3894 -105.4939 60° Northeast 338 389 20,000 -871 Descending Denver Center
Wed 01:40:43 PM 39.4500 -105.3808 55° Northeast 343 395 18,600 -1,073 Descending Denver Center
Wed 01:41:44 PM 39.5014 -105.2794 57° Northeast 339 390 17,800 -1,073 Descending Denver Center
Wed 01:42:46 PM 39.5556 -105.1811 54° Northeast 337 388 16,400 -1,220 Descending Denver Center
Wed 01:43:47 PM 39.5986 -105.0936 57° Northeast 340 391 15,300 -1,024 Descending Denver Center
Wed 01:44:49 PM 39.6564 -104.9850 55° Northeast 297 342 14,300 -774 Descending Denver Center
Wed 01:45:51 PM 39.7022 -104.8953 56° Northeast 300 345 13,700 -774 Descending Denver Center
Wed 01:46:53 PM 39.7714 -104.8428 30° Northeast 278 320 12,700 -1,024 Descending Denver Center
Wed 01:47:54 PM 39.8475 -104.8408 North 271 312 11,600 -829 Descending Denver Center
Wed 01:48:56 PM 39.9161 -104.8389 North 241 277 11,000 -532 Descending Denver Center
Wed 01:49:58 PM 39.9794 -104.8394 360° North 227 261 10,500 -1,122 Descending Denver Center
Wed 01:50:59 PM 40.0481 -104.8408 359° North 229 264 8,700 -1,422 Descending Denver Center
Wed 01:52:13 PM 40.0853 -104.7831 50° Northeast 242 278 7,300 -756 Descending Denver Center
Wed 01:53:14 PM 40.0492 -104.7244 129° Southeast 232 267 7,000 -146 Descending Denver Center
Wed 01:54:16 PM 39.9808 -104.6961 162° South 211 243 7,000 -339 Level Denver Center
Wed 01:55:18 PM 39.9389 -104.6964 180° South 141 162 6,300 -677 Descending Denver Center
Wed 01:56:20 PM 39.9042 -104.6961 180° South 128 147 5,600 -677 Descending Denver Center

Login

Don't have an account? Register now (free) for customized features, flight alerts, and more!